Time;durP1;ratioP1;P1;durP2;ratioP2;P2;SDS_P1;SDS_P2;PMS_P1;PMS_P2;Temp;Humidity;BMP_temperature;BMP_pressure;BME280_temperature;BME280_humidity;BME280_pressure;Samples;Min_cycle;Max_cycle;Signal;HPM_P1;HPM_P2
2023/11/16 00:00:12;;;;;;;1.05;0.70;;;;;;;10.02;59.87;95039.53;4870156;29;20676;-72
2023/11/16 00:02:43;;;;;;;1.30;0.70;;;;;;;10.05;59.34;95029.69;4856371;29;20496;-72
2023/11/16 00:05:13;;;;;;;1.38;0.90;;;;;;;10.02;59.55;95022.28;4862109;29;20032;-72
2023/11/16 00:07:41;;;;;;;1.50;0.60;;;;;;;9.94;59.21;95018.97;4852832;29;20108;-73
2023/11/16 00:10:08;;;;;;;2.97;0.70;;;;;;;9.87;59.21;95034.84;4874668;29;20029;-72
2023/11/16 00:12:34;;;;;;;0.75;0.60;;;;;;;9.72;59.63;95034.41;4873785;29;20065;-73
2023/11/16 00:14:59;;;;;;;1.00;0.50;;;;;;;9.62;59.88;95044.44;4857593;29;20158;-73
2023/11/16 00:17:28;;;;;;;1.15;0.63;;;;;;;9.60;60.09;95055.06;4869058;29;20676;-73
2023/11/16 00:19:56;;;;;;;1.38;0.60;;;;;;;9.56;60.10;95068.09;4873665;29;20599;-73
2023/11/16 00:22:22;;;;;;;1.00;0.70;;;;;;;9.62;60.15;95071.09;4857737;29;20037;-73
2023/11/16 00:24:47;;;;;;;0.75;0.70;;;;;;;9.64;59.63;95085.97;4842496;29;20036;-72
2023/11/16 00:27:13;;;;;;;0.77;0.63;;;;;;;9.62;59.63;95087.56;4839620;29;20309;-72
2023/11/16 00:29:41;;;;;;;0.98;0.63;;;;;;;9.50;59.50;95076.06;4869752;29;20040;-73
2023/11/16 00:32:08;;;;;;;0.93;0.50;;;;;;;9.40;59.95;95084.53;4872868;29;20036;-74
2023/11/16 00:34:34;;;;;;;0.60;0.50;;;;;;;9.33;60.09;95085.47;4856235;29;20097;-72
2023/11/16 00:36:59;;;;;;;1.08;0.65;;;;;;;9.49;59.95;95085.50;4845570;29;20355;-73
2023/11/16 00:39:25;;;;;;;1.00;0.60;;;;;;;9.49;59.81;95073.75;4873695;29;20037;-72
2023/11/16 00:41:50;;;;;;;0.82;0.52;;;;;;;9.54;59.63;95063.03;4872854;29;20164;-73
2023/11/16 00:44:19;;;;;;;1.40;0.93;;;;;;;9.52;59.52;95061.94;4846572;29;20343;-73
2023/11/16 00:46:46;;;;;;;1.65;0.52;;;;;;;9.44;59.57;95064.06;4865628;29;20032;-73
2023/11/16 00:49:11;;;;;;;0.85;0.60;;;;;;;9.42;59.75;95062.94;4857457;29;20133;-73
2023/11/16 00:51:37;;;;;;;1.20;0.70;;;;;;;9.42;59.42;95066.47;4839124;29;20094;-74
2023/11/16 00:54:02;;;;;;;1.58;1.00;;;;;;;9.35;59.65;95063.88;4855967;29;20037;-73
2023/11/16 00:56:28;;;;;;;1.00;0.70;;;;;;;9.38;59.60;95078.72;4852880;29;20181;-72
2023/11/16 00:58:55;;;;;;;1.77;0.90;;;;;;;9.36;59.40;95081.88;4853359;29;20515;-73
2023/11/16 01:01:22;;;;;;;1.33;0.73;;;;;;;9.29;59.62;95082.81;4871342;29;20037;-72
2023/11/16 01:03:49;;;;;;;1.33;0.60;;;;;;;9.29;59.54;95082.03;4854349;29;20037;-72
2023/11/16 01:06:15;;;;;;;3.13;0.60;;;;;;;9.21;59.72;95078.66;4847985;29;20075;-72
2023/11/16 01:08:41;;;;;;;1.73;0.90;;;;;;;9.19;59.84;95081.06;4868973;29;20049;-75
2023/11/16 01:11:12;;;;;;;1.08;0.80;;;;;;;9.18;59.81;95093.25;4843853;29;20025;-73
2023/11/16 01:13:41;;;;;;;1.83;0.90;;;;;;;9.13;60.12;95093.72;4855937;29;20037;-74
2023/11/16 01:16:13;;;;;;;1.65;0.98;;;;;;;9.13;60.12;95101.97;4869636;29;20521;-73
2023/11/16 01:18:46;;;;;;;2.70;1.00;;;;;;;9.10;60.40;95105.53;4856821;29;20025;-73
2023/11/16 01:21:12;;;;;;;1.83;0.90;;;;;;;9.12;60.16;95100.41;4870583;29;20025;-73
2023/11/16 01:23:39;;;;;;;1.00;0.80;;;;;;;9.19;60.01;95086.56;4870189;29;20029;-73
2023/11/16 01:26:13;;;;;;;1.30;1.10;;;;;;;9.25;59.88;95073.88;4871239;29;20033;-73
2023/11/16 01:28:45;;;;;;;1.05;0.80;;;;;;;9.28;59.72;95077.72;4873036;29;20064;-73
2023/11/16 01:31:11;;;;;;;1.60;1.00;;;;;;;9.25;59.45;95067.63;4839843;29;20029;-74
2023/11/16 01:33:37;;;;;;;2.28;1.10;;;;;;;9.22;59.38;95065.72;4846574;29;20045;-73
2023/11/16 01:36:03;;;;;;;1.30;0.90;;;;;;;9.10;59.57;95077.34;4868676;29;20049;-73
2023/11/16 01:38:30;;;;;;;1.02;0.63;;;;;;;9.03;59.52;95089.22;4867656;29;20174;-72
2023/11/16 01:40:56;;;;;;;1.05;0.80;;;;;;;8.94;59.96;95095.28;4877871;29;20037;-73
2023/11/16 01:43:22;;;;;;;1.45;0.90;;;;;;;8.95;59.63;95096.84;4872319;29;20444;-73
2023/11/16 01:45:48;;;;;;;1.52;0.93;;;;;;;8.92;60.02;95099.63;4841999;29;20033;-72
2023/11/16 01:48:18;;;;;;;1.65;0.80;;;;;;;8.90;59.96;95097.31;4867886;29;20084;-72
2023/11/16 01:50:43;;;;;;;2.17;1.00;;;;;;;8.91;60.01;95103.59;4830251;29;20033;-74
2023/11/16 01:53:10;;;;;;;2.08;1.35;;;;;;;8.89;59.68;95116.91;4868546;29;20037;-74
2023/11/16 01:55:38;;;;;;;0.98;0.82;;;;;;;8.86;60.16;95109.56;4867123;29;20053;-73
2023/11/16 01:58:06;;;;;;;2.25;1.05;;;;;;;8.80;60.28;95106.53;4867741;29;20029;-74
2023/11/16 02:00:33;;;;;;;1.67;0.93;;;;;;;8.86;60.11;95101.31;4853299;29;20025;-74
2023/11/16 02:03:03;;;;;;;1.42;0.90;;;;;;;8.88;60.23;95105.19;4869317;29;20025;-74
2023/11/16 02:05:32;;;;;;;1.95;1.40;;;;;;;9.06;59.65;95113.09;4868449;29;20042;-74
2023/11/16 02:07:58;;;;;;;1.75;0.98;;;;;;;8.97;59.93;95112.84;4855199;29;20025;-74
2023/11/16 02:10:24;;;;;;;1.60;0.93;;;;;;;8.99;59.85;95118.69;4840407;29;20044;-73
2023/11/16 02:12:53;;;;;;;2.20;0.90;;;;;;;8.99;59.56;95119.47;4855113;29;20408;-74
2023/11/16 02:15:18;;;;;;;1.13;0.80;;;;;;;9.04;59.65;95121.72;4854200;29;20029;-72
2023/11/16 02:17:44;;;;;;;1.10;0.73;;;;;;;9.06;59.63;95121.31;4851447;29;20101;-74
2023/11/16 02:20:10;;;;;;;1.63;0.90;;;;;;;8.99;59.47;95119.47;4869622;29;20037;-73
2023/11/16 02:22:40;;;;;;;1.10;0.68;;;;;;;9.02;59.09;95124.13;4854525;29;20092;-74
2023/11/16 02:25:06;;;;;;;1.35;0.85;;;;;;;9.07;59.08;95128.34;4855248;29;20104;-74
2023/11/16 02:27:32;;;;;;;1.10;1.00;;;;;;;9.15;59.05;95126.97;4850946;29;20049;-73
2023/11/16 02:29:57;;;;;;;1.55;0.95;;;;;;;9.18;58.98;95120.66;4853191;29;20033;-73
2023/11/16 02:32:25;;;;;;;1.02;0.90;;;;;;;9.21;58.67;95121.78;4872481;29;20131;-74
2023/11/16 02:34:51;;;;;;;1.00;0.80;;;;;;;9.16;58.54;95123.03;4837365;29;20464;-74
2023/11/16 02:37:17;;;;;;;1.10;0.80;;;;;;;9.24;58.55;95127.19;4867892;29;20041;-74
2023/11/16 02:39:43;;;;;;;0.88;0.80;;;;;;;9.22;58.89;95121.34;4862656;29;20041;-73
2023/11/16 02:42:12;;;;;;;1.15;0.95;;;;;;;9.22;58.48;95135.06;4853554;29;20038;-73
2023/11/16 02:44:38;;;;;;;0.85;0.65;;;;;;;9.20;58.54;95136.69;4855562;29;20045;-73
2023/11/16 02:47:05;;;;;;;1.20;0.85;;;;;;;9.26;58.60;95137.75;4854964;29;20492;-73
2023/11/16 02:49:31;;;;;;;1.73;0.82;;;;;;;9.29;58.48;95134.94;4871715;29;20052;-73
2023/11/16 02:51:58;;;;;;;1.65;0.90;;;;;;;9.15;58.67;95145.41;4871062;29;20033;-74
2023/11/16 02:54:24;;;;;;;1.73;1.08;;;;;;;9.17;59.00;95146.53;4871998;29;20411;-72
2023/11/16 02:56:50;;;;;;;1.67;1.08;;;;;;;9.21;58.64;95149.97;4854709;29;20033;-73
2023/11/16 02:59:34;;;;;;;2.38;1.00;;;;;;;9.18;59.04;95150.84;4842970;29;20503;-73
2023/11/16 03:01:59;;;;;;;1.77;1.00;;;;;;;9.18;59.19;95155.56;4856782;29;20036;-73
2023/11/16 03:04:24;;;;;;;2.08;1.00;;;;;;;9.23;59.01;95144.06;4846916;29;20029;-73
2023/11/16 03:06:51;;;;;;;2.28;1.20;;;;;;;9.27;58.98;95153.00;4852332;29;20124;-73
2023/11/16 03:09:17;;;;;;;1.95;1.02;;;;;;;9.21;59.21;95154.69;4866337;29;20508;-73
2023/11/16 03:11:43;;;;;;;1.88;1.10;;;;;;;9.23;59.26;95163.25;4863736;29;20035;-72
2023/11/16 03:14:08;;;;;;;1.60;0.95;;;;;;;9.23;59.04;95157.78;4853111;29;20037;-73
2023/11/16 03:16:39;;;;;;;2.95;1.58;;;;;;;9.17;59.20;95160.25;4872608;29;20087;-73
2023/11/16 03:19:05;;;;;;;2.25;1.20;;;;;;;9.11;59.39;95150.97;4873808;29;20028;-74
2023/11/16 03:21:30;;;;;;;2.67;1.13;;;;;;;9.04;59.44;95154.63;4857995;29;20036;-72
2023/11/16 03:23:55;;;;;;;2.95;1.00;;;;;;;9.00;59.63;95153.13;4857535;29;20097;-72
2023/11/16 03:26:21;;;;;;;1.65;1.05;;;;;;;8.82;59.96;95155.44;4870021;29;20071;-73
2023/11/16 03:28:49;;;;;;;2.58;1.10;;;;;;;8.79;59.92;95165.28;4870890;29;20068;-72
2023/11/16 03:31:14;;;;;;;1.58;0.98;;;;;;;8.70;60.39;95168.56;4839447;29;20060;-73
2023/11/16 03:33:40;;;;;;;1.75;0.90;;;;;;;8.70;60.35;95171.31;4870510;29;20037;-73
2023/11/16 03:36:06;;;;;;;3.30;1.17;;;;;;;8.69;60.47;95175.25;4856032;29;20449;-72
2023/11/16 03:38:31;;;;;;;2.50;1.05;;;;;;;8.77;60.17;95173.13;4863588;29;20588;-73
2023/11/16 03:40:57;;;;;;;3.60;1.30;;;;;;;8.77;59.85;95182.16;4863129;29;20033;-73
2023/11/16 03:43:23;;;;;;;3.85;1.15;;;;;;;8.77;59.90;95190.38;4860759;29;20089;-72
2023/11/16 03:45:48;;;;;;;2.63;1.17;;;;;;;8.78;59.54;95194.66;4875168;29;20116;-73
2023/11/16 03:48:13;;;;;;;1.23;0.90;;;;;;;8.70;59.72;95184.25;4873717;29;20025;-73
2023/11/16 03:50:42;;;;;;;2.00;0.90;;;;;;;8.65;59.91;95187.47;4863718;29;20034;-72
2023/11/16 03:53:07;;;;;;;1.65;0.93;;;;;;;8.58;60.10;95196.56;4856458;29;20061;-72
2023/11/16 03:55:33;;;;;;;1.15;0.70;;;;;;;8.57;60.27;95207.97;4867859;29;20069;-74
2023/11/16 03:57:58;;;;;;;1.77;1.00;;;;;;;8.58;60.55;95209.50;4864819;29;20124;-73
2023/11/16 04:00:25;;;;;;;3.80;1.42;;;;;;;8.62;60.69;95213.75;4860911;29;20061;-74
2023/11/16 04:02:51;;;;;;;2.05;1.30;;;;;;;8.62;60.71;95218.44;4868468;29;20045;-73
2023/11/16 04:05:18;;;;;;;3.03;1.65;;;;;;;8.71;60.41;95222.19;4842428;29;20033;-74
2023/11/16 04:07:44;;;;;;;5.45;2.22;;;;;;;8.64;60.58;95216.81;4856513;29;20473;-73
2023/11/16 04:10:12;;;;;;;2.00;1.30;;;;;;;8.76;60.35;95232.69;4842870;29;20097;-74
2023/11/16 04:12:39;;;;;;;2.25;1.40;;;;;;;8.70;60.14;95219.88;4853309;29;20512;-71
2023/11/16 04:15:06;;;;;;;1.63;1.20;;;;;;;8.76;59.79;95216.22;4855488;29;20029;-73
2023/11/16 04:17:32;;;;;;;2.40;1.50;;;;;;;8.73;60.07;95205.34;4839053;29;20060;-72
2023/11/16 04:19:57;;;;;;;3.10;1.70;;;;;;;8.85;59.72;95210.22;4856094;29;20033;-73
2023/11/16 04:22:23;;;;;;;2.40;1.58;;;;;;;8.86;59.46;95206.28;4853286;29;20532;-74
2023/11/16 04:24:52;;;;;;;3.30;1.50;;;;;;;8.88;59.82;95206.63;4840333;29;20625;-72
2023/11/16 04:27:18;;;;;;;2.35;1.55;;;;;;;8.88;59.76;95212.09;4868300;29;20061;-73
2023/11/16 04:29:45;;;;;;;2.22;1.45;;;;;;;8.94;59.44;95215.13;4869461;29;20223;-74
2023/11/16 04:32:11;;;;;;;2.58;1.65;;;;;;;8.92;59.47;95207.34;4838324;29;20041;-74
2023/11/16 04:34:37;;;;;;;2.20;1.38;;;;;;;8.89;59.60;95208.19;4869115;29;20065;-72
2023/11/16 04:37:04;;;;;;;2.08;1.60;;;;;;;8.85;59.29;95212.97;4856940;29;20234;-73
2023/11/16 04:39:30;;;;;;;2.83;1.40;;;;;;;8.89;59.16;95219.16;4873486;29;20033;-73
2023/11/16 04:41:55;;;;;;;3.13;1.42;;;;;;;8.80;59.11;95218.91;4869672;29;20037;-72
2023/11/16 04:44:21;;;;;;;2.10;1.50;;;;;;;8.85;59.03;95215.69;4855776;29;20454;-73
2023/11/16 04:46:48;;;;;;;4.22;2.28;;;;;;;8.86;59.15;95227.44;4871361;29;20068;-73
2023/11/16 04:49:15;;;;;;;2.78;1.75;;;;;;;8.80;59.09;95235.38;4870141;29;20051;-74
2023/11/16 04:51:40;;;;;;;2.40;1.50;;;;;;;8.82;59.23;95234.94;4869228;29;20073;-74
2023/11/16 04:54:06;;;;;;;3.00;2.10;;;;;;;8.79;59.08;95242.03;4860903;29;20060;-74
2023/11/16 04:56:32;;;;;;;2.90;2.10;;;;;;;8.75;59.06;95244.84;4841282;29;20114;-72
2023/11/16 04:58:58;;;;;;;3.15;2.08;;;;;;;8.83;58.78;95244.72;4852646;29;20060;-73
2023/11/16 05:01:23;;;;;;;3.75;2.10;;;;;;;8.78;58.86;95246.75;4873113;29;20040;-73
2023/11/16 05:03:49;;;;;;;2.80;2.03;;;;;;;8.73;58.91;95249.19;4870347;29;20021;-72
2023/11/16 05:06:14;;;;;;;2.90;1.80;;;;;;;8.76;58.94;95257.34;4868142;29;20099;-73
2023/11/16 05:08:43;;;;;;;3.47;1.70;;;;;;;8.84;58.69;95258.03;4855177;29;20102;-74
2023/11/16 05:11:08;;;;;;;1.77;1.48;;;;;;;8.79;58.74;95261.22;4868701;29;20109;-73
2023/11/16 05:13:34;;;;;;;2.72;1.80;;;;;;;8.84;58.56;95262.72;4869358;29;20121;-72
2023/11/16 05:16:00;;;;;;;3.40;2.05;;;;;;;8.82;58.60;95262.34;4837223;29;20033;-73
2023/11/16 05:18:26;;;;;;;3.53;2.00;;;;;;;8.83;58.61;95263.91;4842412;29;20040;-72
2023/11/16 05:20:53;;;;;;;2.83;1.77;;;;;;;8.75;58.60;95271.47;4862110;29;20034;-72
2023/11/16 05:23:19;;;;;;;2.72;2.13;;;;;;;8.82;58.62;95270.56;4869389;29;20033;-73
2023/11/16 05:25:44;;;;;;;2.95;2.03;;;;;;;8.78;58.83;95265.19;4841905;29;20420;-73
2023/11/16 05:28:11;;;;;;;3.95;1.95;;;;;;;8.87;58.47;95278.31;4854147;29;20053;-73
2023/11/16 05:30:37;;;;;;;4.32;2.20;;;;;;;8.85;58.40;95264.28;4869572;29;20512;-73
2023/11/16 05:33:03;;;;;;;5.35;2.75;;;;;;;8.81;58.56;95272.53;4849278;29;20053;-73
2023/11/16 05:35:29;;;;;;;4.85;3.00;;;;;;;8.78;58.64;95271.44;4852157;29;20021;-71
2023/11/16 05:37:55;;;;;;;5.78;2.60;;;;;;;8.82;58.55;95262.34;4854476;29;20423;-72
2023/11/16 05:40:21;;;;;;;3.30;2.20;;;;;;;8.84;58.33;95271.72;4844219;29;20030;-73
2023/11/16 05:42:46;;;;;;;2.88;2.00;;;;;;;8.89;58.18;95267.72;4870112;29;20049;-72
2023/11/16 05:45:12;;;;;;;2.50;1.90;;;;;;;8.85;58.15;95286.22;4854025;29;20048;-73
2023/11/16 05:47:38;;;;;;;5.05;1.88;;;;;;;8.89;58.05;95286.91;4854757;29;20033;-73
2023/11/16 05:50:05;;;;;;;3.30;1.88;;;;;;;8.86;58.18;95287.75;4867441;29;20037;-73
2023/11/16 05:52:31;;;;;;;2.30;1.50;;;;;;;8.93;57.91;95295.84;4862501;29;20036;-74
2023/11/16 05:54:56;;;;;;;3.60;1.90;;;;;;;8.93;57.83;95301.34;4855296;29;20048;-73
2023/11/16 05:57:21;;;;;;;2.67;2.22;;;;;;;8.88;57.68;95299.06;4870656;29;20041;-73
2023/11/16 05:59:47;;;;;;;4.13;2.00;;;;;;;8.87;57.60;95292.03;4839608;29;20097;-73
2023/11/16 06:02:14;;;;;;;3.42;1.80;;;;;;;8.91;57.71;95295.50;4851715;29;20025;-73
2023/11/16 06:04:42;;;;;;;2.70;1.80;;;;;;;8.88;57.90;95301.81;4851525;29;20021;-74
2023/11/16 06:07:07;;;;;;;3.85;1.65;;;;;;;8.94;57.49;95306.41;4845748;29;20037;-72
2023/11/16 06:09:33;;;;;;;2.90;2.08;;;;;;;9.01;57.35;95302.78;4840830;29;20038;-72
2023/11/16 06:12:01;;;;;;;2.40;2.00;;;;;;;9.00;57.09;95310.25;4865373;29;20066;-74
2023/11/16 06:14:30;;;;;;;2.83;1.75;;;;;;;9.02;57.08;95315.28;4868892;29;20476;-74
2023/11/16 06:16:57;;;;;;;3.05;2.00;;;;;;;9.01;57.24;95321.97;4870996;29;20037;-73
2023/11/16 06:19:22;;;;;;;2.45;1.60;;;;;;;9.07;56.91;95320.31;4847164;29;20040;-72
2023/11/16 06:21:47;;;;;;;3.67;1.60;;;;;;;8.97;57.02;95319.28;4864274;29;20025;-76
2023/11/16 06:24:13;;;;;;;4.00;1.58;;;;;;;9.06;56.96;95321.50;4858504;29;20037;-73
2023/11/16 06:26:39;;;;;;;2.63;1.50;;;;;;;9.05;57.12;95328.16;4854239;29;20488;-74
2023/11/16 06:29:06;;;;;;;2.35;1.60;;;;;;;9.20;56.66;95351.44;4854212;29;20045;-73
2023/11/16 06:31:31;;;;;;;2.92;1.77;;;;;;;9.20;56.64;95339.69;4853832;29;20029;-74
2023/11/16 06:33:57;;;;;;;2.38;1.58;;;;;;;9.27;56.63;95356.00;4853439;29;20477;-74
2023/11/16 06:36:24;;;;;;;2.47;1.33;;;;;;;9.32;56.28;95348.06;4865074;29;20075;-74
2023/11/16 06:38:49;;;;;;;3.67;1.30;;;;;;;9.36;56.47;95356.25;4853459;29;20084;-73
2023/11/16 06:41:16;;;;;;;2.28;1.50;;;;;;;9.42;56.43;95354.56;4841011;29;20475;-74
2023/11/16 06:43:41;;;;;;;2.28;1.10;;;;;;;9.46;56.07;95357.25;4853132;29;20531;-73
2023/11/16 06:46:12;;;;;;;3.70;2.13;;;;;;;9.49;55.73;95354.44;4866787;29;20029;-73
2023/11/16 06:48:41;;;;;;;3.92;1.73;;;;;;;9.56;55.93;95350.78;4867665;29;20030;-73
2023/11/16 06:51:09;;;;;;;3.95;1.42;;;;;;;9.65;55.74;95353.00;4870644;29;20057;-73
2023/11/16 06:53:38;;;;;;;1.60;1.25;;;;;;;9.67;55.50;95362.34;4859176;29;20028;-73
2023/11/16 06:56:04;;;;;;;2.83;1.85;;;;;;;9.74;55.62;95358.69;4859470;29;20052;-74
2023/11/16 06:58:31;;;;;;;2.40;1.58;;;;;;;9.83;55.63;95362.44;4858226;29;20415;-74
2023/11/16 07:00:58;;;;;;;3.97;1.63;;;;;;;9.93;54.85;95366.19;4859358;29;20516;-72
2023/11/16 07:03:25;;;;;;;2.38;1.75;;;;;;;9.95;55.08;95361.03;4855894;29;20048;-74
2023/11/16 07:05:51;;;;;;;2.30;1.42;;;;;;;10.06;54.48;95356.09;4840930;29;20034;-73
2023/11/16 07:08:17;;;;;;;2.22;1.20;;;;;;;10.14;54.00;95361.44;4856591;29;20040;-73
2023/11/16 07:10:42;;;;;;;2.20;1.00;;;;;;;10.25;53.58;95368.31;4857295;29;20446;-74
2023/11/16 07:13:14;;;;;;;1.77;1.10;;;;;;;10.35;53.54;95369.28;4856901;29;20025;-73
2023/11/16 07:15:40;;;;;;;2.85;1.50;;;;;;;10.40;53.21;95359.78;4840336;29;20029;-73
2023/11/16 07:18:06;;;;;;;1.83;1.10;;;;;;;10.56;53.05;95362.56;4857815;29;20025;-73
2023/11/16 07:20:31;;;;;;;1.65;1.13;;;;;;;10.74;52.64;95359.41;4839863;29;20026;-72
2023/11/16 07:22:57;;;;;;;4.70;2.38;;;;;;;10.94;52.26;95373.09;4840167;29;20041;-73
2023/11/16 07:25:25;;;;;;;3.22;2.05;;;;;;;11.14;51.58;95376.56;4856192;29;20077;-73
2023/11/16 07:27:51;;;;;;;3.50;1.50;;;;;;;11.39;51.01;95370.44;4856919;29;20053;-73
2023/11/16 07:30:17;;;;;;;3.75;1.70;;;;;;;11.59;49.52;95368.38;4856656;29;20033;-72
2023/11/16 07:32:43;;;;;;;3.25;1.40;;;;;;;11.89;48.80;95378.22;4856340;29;20112;-74
2023/11/16 07:35:15;;;;;;;4.57;1.55;;;;;;;12.20;48.41;95383.28;4840710;29;20021;-72
2023/11/16 07:37:44;;;;;;;3.60;1.50;;;;;;;12.58;47.26;95385.38;4840099;29;20112;-74
2023/11/16 07:40:11;;;;;;;5.32;1.38;;;;;;;13.01;46.56;95388.34;4843308;29;20121;-74
2023/11/16 07:42:39;;;;;;;2.45;1.33;;;;;;;13.62;45.31;95388.44;4845050;29;20029;-73
2023/11/16 07:45:15;;;;;;;1.77;1.10;;;;;;;14.42;43.16;95394.31;4857865;29;20026;-74
2023/11/16 07:47:41;;;;;;;3.13;1.35;;;;;;;15.59;40.59;95402.09;4857939;29;20045;-76
2023/11/16 07:50:10;;;;;;;2.83;1.60;;;;;;;17.02;37.02;95418.16;4857531;29;20048;-81
2023/11/16 07:52:47;;;;;;;2.28;1.40;;;;;;;18.34;34.66;95403.38;4841295;29;20040;-89
2023/11/16 07:55:18;;;;;;;2.53;1.33;;;;;;;19.29;32.56;95403.06;4869325;29;20077;-75
2023/11/16 07:57:53;;;;;;;3.05;1.65;;;;;;;20.15;30.85;95414.94;4871760;29;20575;-80
2023/11/16 08:00:26;;;;;;;2.53;1.80;;;;;;;20.94;29.80;95419.41;4871644;29;20423;-74
2023/11/16 08:05:41;;;;;;;4.55;2.75;;;;;;;22.51;27.68;95429.63;4868526;29;20090;-74
2023/11/16 08:08:11;;;;;;;4.15;1.73;;;;;;;23.09;26.74;95436.94;4869812;29;20101;-78
2023/11/16 08:10:38;;;;;;;2.60;1.50;;;;;;;22.09;27.73;95438.84;4875273;29;20033;-74
2023/11/16 08:13:05;;;;;;;2.65;1.48;;;;;;;20.85;29.62;95430.72;4846137;29;20037;-79
2023/11/16 08:15:32;;;;;;;3.55;2.25;;;;;;;22.31;27.40;95432.59;4853303;29;20515;-72
2023/11/16 08:17:58;;;;;;;6.93;2.03;;;;;;;22.82;26.18;95436.31;4869751;29;20084;-72
2023/11/16 08:20:23;;;;;;;2.35;1.00;;;;;;;23.65;25.37;95420.13;4868616;29;20041;-72
2023/11/16 08:22:53;;;;;;;1.77;1.00;;;;;;;24.24;24.83;95418.97;4846545;29;20353;-72
2023/11/16 08:25:22;;;;;;;2.75;1.20;;;;;;;24.93;23.81;95409.72;4867926;29;20154;-71
2023/11/16 08:27:49;;;;;;;3.67;0.80;;;;;;;25.29;22.82;95425.38;4874550;29;20504;-72
2023/11/16 08:30:15;;;;;;;4.10;1.50;;;;;;;25.61;22.40;95434.06;4848382;29;20048;-72
2023/11/16 08:32:41;;;;;;;3.60;2.20;;;;;;;26.06;21.80;95433.66;4839293;29;20042;-72
2023/11/16 08:35:06;;;;;;;1.55;0.90;;;;;;;26.31;21.01;95437.22;4866126;29;20025;-72
2023/11/16 08:37:32;;;;;;;2.40;0.95;;;;;;;26.64;20.58;95424.81;4872133;29;20048;-76
2023/11/16 08:39:57;;;;;;;3.13;1.35;;;;;;;26.92;20.23;95418.06;4869727;29;20026;-73
2023/11/16 08:42:24;;;;;;;1.77;0.98;;;;;;;27.39;20.11;95415.56;4865575;29;20073;-72
2023/11/16 08:44:50;;;;;;;1.30;0.90;;;;;;;27.65;19.47;95412.06;4855631;29;20595;-72
2023/11/16 08:47:18;;;;;;;2.67;1.67;;;;;;;27.94;19.44;95423.69;4830002;29;20514;-72
2023/11/16 08:49:43;;;;;;;1.95;1.13;;;;;;;28.18;18.59;95405.75;4840302;29;20029;-72
2023/11/16 08:52:10;;;;;;;3.72;1.77;;;;;;;28.51;18.58;95427.00;4868051;29;20420;-72
2023/11/16 08:54:36;;;;;;;3.10;1.30;;;;;;;28.68;18.07;95412.50;4861871;29;20049;-72
2023/11/16 08:57:02;;;;;;;1.80;1.20;;;;;;;29.00;17.95;95413.09;4862708;29;20051;-71
2023/11/16 08:59:28;;;;;;;1.58;0.80;;;;;;;28.95;17.53;95413.97;4843338;29;20033;-71
2023/11/16 09:01:59;;;;;;;1.77;1.10;;;;;;;29.48;17.11;95427.97;4876118;29;20025;-72
2023/11/16 09:04:24;;;;;;;2.35;1.20;;;;;;;29.77;16.54;95422.41;4862840;29;20067;-73
2023/11/16 09:06:50;;;;;;;3.22;1.08;;;;;;;30.25;16.42;95418.03;4868728;29;20546;-72
2023/11/16 09:09:35;;;;;;;1.52;0.75;;;;;;;30.37;16.21;95427.00;4854386;29;20041;-71
2023/11/16 09:12:05;;;;;;;1.75;0.70;;;;;;;29.35;16.94;95417.44;4867331;29;20021;-72
2023/11/16 09:14:34;;;;;;;3.22;0.80;;;;;;;30.08;16.50;95412.81;4867437;29;20540;-72
2023/11/16 09:17:02;;;;;;;2.17;0.73;;;;;;;29.85;16.59;95409.03;4868822;29;20037;-71
2023/11/16 09:19:27;;;;;;;2.20;0.90;;;;;;;30.13;16.00;95408.34;4856169;29;20055;-71
2023/11/16 09:21:54;;;;;;;1.35;0.70;;;;;;;30.45;15.78;95405.09;4867396;29;20030;-72
2023/11/16 09:24:21;;;;;;;1.73;0.70;;;;;;;29.34;16.41;95413.09;4856628;29;20166;-72
2023/11/16 09:26:48;;;;;;;1.23;0.70;;;;;;;28.38;17.47;95422.06;4849618;29;20038;-77
2023/11/16 09:29:15;;;;;;;2.22;1.08;;;;;;;29.36;17.10;95418.19;4819771;29;20045;-72
2023/11/16 09:31:43;;;;;;;1.90;0.70;;;;;;;28.82;17.73;95422.47;4860550;29;20033;-73
2023/11/16 09:34:10;;;;;;;1.20;0.80;;;;;;;27.33;18.99;95417.72;4853515;29;20118;-72
2023/11/16 09:36:37;;;;;;;1.33;0.80;;;;;;;25.97;20.32;95424.78;4868973;29;20143;-73
2023/11/16 09:39:07;;;;;;;2.13;1.10;;;;;;;27.57;19.20;95433.75;4867812;29;20404;-74
2023/11/16 09:41:33;;;;;;;2.55;0.90;;;;;;;28.35;18.44;95416.78;4852544;29;20081;-73
2023/11/16 09:44:05;;;;;;;1.83;0.80;;;;;;;28.01;18.47;95425.84;4867906;29;20029;-72
2023/11/16 09:46:32;;;;;;;2.88;1.20;;;;;;;27.46;19.06;95422.66;4852796;29;20036;-73
2023/11/16 09:49:02;;;;;;;5.13;1.40;;;;;;;28.41;18.47;95417.41;4854385;29;20113;-73
2023/11/16 09:51:31;;;;;;;3.03;1.52;;;;;;;29.24;17.70;95414.84;4853813;29;20519;-73
2023/11/16 09:54:01;;;;;;;1.52;0.90;;;;;;;29.86;16.98;95416.22;4868494;29;20144;-73
2023/11/16 09:56:30;;;;;;;1.95;1.15;;;;;;;30.60;16.15;95410.13;4866987;29;20201;-73
2023/11/16 09:59:03;;;;;;;1.92;1.00;;;;;;;30.86;15.92;95411.97;4868077;29;20056;-72
2023/11/16 10:01:37;;;;;;;2.28;1.10;;;;;;;29.91;16.37;95400.38;4867172;29;20448;-72
2023/11/16 10:04:05;;;;;;;3.00;1.60;;;;;;;30.92;15.72;95401.97;4837211;29;20034;-73
2023/11/16 10:06:32;;;;;;;2.17;1.25;;;;;;;31.64;15.35;95405.94;4868665;29;20029;-72
2023/11/16 10:09:02;;;;;;;2.33;1.45;;;;;;;32.19;15.21;95396.84;4852990;29;20033;-73
2023/11/16 10:11:31;;;;;;;1.77;1.13;;;;;;;32.74;14.37;95396.91;4867875;29;20040;-73
2023/11/16 10:13:56;;;;;;;2.67;1.60;;;;;;;32.94;14.32;95386.63;4866955;29;20026;-73
2023/11/16 10:16:26;;;;;;;1.60;0.90;;;;;;;33.22;13.45;95396.94;4854186;29;20100;-72
2023/11/16 10:18:59;;;;;;;1.70;0.90;;;;;;;33.00;13.59;95392.84;4836849;29;20073;-73
2023/11/16 10:21:25;;;;;;;1.98;1.13;;;;;;;32.98;13.92;95389.84;4821525;29;20137;-72
2023/11/16 10:23:51;;;;;;;3.10;1.60;;;;;;;33.82;13.60;95382.84;4868028;29;20112;-72
2023/11/16 10:26:19;;;;;;;2.20;1.20;;;;;;;34.01;13.32;95382.34;4866707;29;20068;-72
2023/11/16 10:28:53;;;;;;;2.72;1.40;;;;;;;34.15;12.69;95391.34;4868073;29;20037;-72
2023/11/16 10:31:21;;;;;;;3.05;1.38;;;;;;;34.14;12.74;95389.84;4867283;29;20116;-73
2023/11/16 10:33:47;;;;;;;3.92;2.40;;;;;;;34.75;12.37;95374.94;4853756;29;20079;-73
2023/11/16 10:36:13;;;;;;;4.30;1.98;;;;;;;34.45;12.63;95368.22;4852128;29;20523;-73
2023/11/16 10:38:38;;;;;;;2.03;0.95;;;;;;;35.29;12.33;95372.16;4851824;29;20056;-73
2023/11/16 10:41:04;;;;;;;2.67;1.42;;;;;;;35.86;11.57;95365.22;4868028;29;20540;-72
2023/11/16 10:43:29;;;;;;;3.05;1.05;;;;;;;36.45;11.49;95344.00;4835714;29;20038;-73
2023/11/16 10:45:57;;;;;;;2.47;1.20;;;;;;;36.58;10.94;95349.25;4867918;29;20377;-73
2023/11/16 10:48:23;;;;;;;1.67;0.98;;;;;;;37.26;10.68;95357.03;4853245;29;20033;-73
2023/11/16 10:50:49;;;;;;;1.48;0.80;;;;;;;37.21;10.46;95362.47;4837162;29;20461;-73
2023/11/16 10:53:23;;;;;;;2.15;0.65;;;;;;;37.71;10.22;95356.00;4836128;29;20204;-71
2023/11/16 10:55:58;;;;;;;2.28;0.80;;;;;;;37.53;9.94;95353.97;4837006;29;20050;-73
2023/11/16 10:58:29;;;;;;;1.48;0.70;;;;;;;37.58;10.42;95347.16;4867486;29;20065;-72
2023/11/16 11:00:59;;;;;;;3.65;1.10;;;;;;;38.03;10.06;95353.19;4852424;29;20029;-73
2023/11/16 11:03:25;;;;;;;1.75;0.80;;;;;;;37.13;10.41;95347.56;4837098;29;20121;-72
2023/11/16 11:05:57;;;;;;;2.67;0.90;;;;;;;34.91;11.79;95333.41;4867027;29;20040;-72
2023/11/16 11:08:35;;;;;;;4.82;0.80;;;;;;;32.76;13.33;95345.13;4853380;29;20362;-73
2023/11/16 11:11:03;;;;;;;2.28;0.80;;;;;;;31.22;14.51;95346.59;4867482;29;20053;-72
2023/11/16 11:13:32;;;;;;;2.17;0.65;;;;;;;30.44;15.22;95351.78;4852684;29;20033;-73
2023/11/16 11:16:05;;;;;;;1.30;0.40;;;;;;;29.97;15.52;95325.25;4853893;29;20034;-72
2023/11/16 11:18:31;;;;;;;2.20;1.10;;;;;;;29.99;15.42;95330.34;4821255;29;20157;-72
2023/11/16 11:21:10;;;;;;;2.35;1.02;;;;;;;30.27;15.49;95326.75;4853530;29;20030;-72
2023/11/16 11:23:39;;;;;;;2.88;1.30;;;;;;;30.26;15.70;95336.56;4866783;29;20436;-73
2023/11/16 11:26:10;;;;;;;4.25;1.23;;;;;;;30.17;15.48;95326.53;4866770;29;20029;-72
2023/11/16 11:28:38;;;;;;;3.25;1.50;;;;;;;30.47;15.34;95330.84;4853836;29;20040;-73
2023/11/16 11:31:05;;;;;;;1.75;0.90;;;;;;;30.33;14.98;95333.78;4852215;29;20120;-72
2023/11/16 11:33:37;;;;;;;2.47;0.90;;;;;;;31.08;14.79;95343.16;4867633;29;20058;-73
2023/11/16 11:36:07;;;;;;;1.63;0.80;;;;;;;31.46;14.58;95334.69;4852468;29;20124;-72
2023/11/16 11:38:36;;;;;;;1.90;0.68;;;;;;;32.63;13.73;95333.97;4869364;29;20393;-72
2023/11/16 11:41:06;;;;;;;1.98;0.80;;;;;;;29.97;15.47;95327.31;4870253;29;20040;-73